SAS454 ESGG-ENVA
Flight info
| Callsign | SAS454 |
|---|---|
| Flight time | N/A |
| Altitude | 32000 |
| Route | SABAK L997 REGMA DCT VEVOD |
| Aircraft | B738/M-SDE2E3FGHIRWXY/LB1 |
Departure
| Time | 2026-04-30 04:33 |
|---|---|
| Airport | Göteborg Landvetter Airport (ESGG) |
Arrival
| Time | N/A |
|---|---|
| Airport | Trondheim Airport, Værnes (ENVA) |
| Time | Latitude | Longitude | Altitude | Speed | Heading |
|---|---|---|---|---|---|
| 2026-04-30 04:00 | 57.66973 | 12.29498 | 515 ft | 0 kts | 116° |
| 2026-04-30 04:03 | 57.66973 | 12.29497 | 515 ft | 0 kts | 116° |
| 2026-04-30 04:08 | 57.66973 | 12.29498 | 515 ft | 0 kts | 116° |
| 2026-04-30 04:08 | 57.66973 | 12.29497 | 515 ft | 0 kts | 116° |
| 2026-04-30 04:26 | 57.66977 | 12.29482 | 515 ft | 4 kts | 116° |
| 2026-04-30 04:26 | 57.66988 | 12.29436 | 515 ft | 4 kts | 116° |
| 2026-04-30 04:26 | 57.66998 | 12.29401 | 515 ft | 4 kts | 137° |
| 2026-04-30 04:27 | 57.67018 | 12.29389 | 515 ft | 4 kts | 200° |
| 2026-04-30 04:27 | 57.67026 | 12.29395 | 515 ft | 0 kts | 206° |
| 2026-04-30 04:29 | 57.67012 | 12.29382 | 515 ft | 4 kts | 205° |
| 2026-04-30 04:29 | 57.66983 | 12.29356 | 515 ft | 5 kts | 210° |
| 2026-04-30 04:29 | 57.66981 | 12.29295 | 515 ft | 5 kts | 298° |
| 2026-04-30 04:30 | 57.67000 | 12.29234 | 515 ft | 6 kts | 304° |
| 2026-04-30 04:30 | 57.67040 | 12.29197 | 515 ft | 8 kts | 360° |
| 2026-04-30 04:30 | 57.67107 | 12.29243 | 515 ft | 11 kts | 26° |
| 2026-04-30 04:30 | 57.67175 | 12.29304 | 515 ft | 11 kts | 26° |
| 2026-04-30 04:31 | 57.67240 | 12.29364 | 515 ft | 10 kts | 26° |
| 2026-04-30 04:31 | 57.67304 | 12.29422 | 515 ft | 10 kts | 25° |
| 2026-04-30 04:31 | 57.67366 | 12.29478 | 515 ft | 10 kts | 25° |
| 2026-04-30 04:31 | 57.67427 | 12.29532 | 515 ft | 10 kts | 25° |
| 2026-04-30 04:32 | 57.67486 | 12.29583 | 515 ft | 9 kts | 22° |
| 2026-04-30 04:32 | 57.67547 | 12.29557 | 515 ft | 11 kts | 314° |
| 2026-04-30 04:32 | 57.67586 | 12.29415 | 515 ft | 14 kts | 285° |
| 2026-04-30 04:32 | 57.67579 | 12.29226 | 515 ft | 15 kts | 247° |
| 2026-04-30 04:33 | 57.67494 | 12.29084 | 514 ft | 20 kts | 206° |
| 2026-04-30 04:33 | 57.67141 | 12.28764 | 513 ft | 99 kts | 205° |
| 2026-04-30 04:33 | 57.66281 | 12.27978 | 524 ft | 172 kts | 207° |
| 2026-04-30 04:33 | 57.65183 | 12.26967 | 1281 ft | 184 kts | 206° |
| 2026-04-30 04:34 | 57.63973 | 12.25890 | 2132 ft | 202 kts | 206° |
| 2026-04-30 04:34 | 57.62610 | 12.24679 | 2523 ft | 230 kts | 205° |
| 2026-04-30 04:34 | 57.61114 | 12.23339 | 2838 ft | 251 kts | 206° |
| 2026-04-30 04:34 | 57.59501 | 12.21860 | 3360 ft | 264 kts | 206° |
| 2026-04-30 04:35 | 57.57880 | 12.20203 | 4189 ft | 268 kts | 219° |
| 2026-04-30 04:35 | 57.56752 | 12.17471 | 5068 ft | 269 kts | 246° |
| 2026-04-30 04:35 | 57.56251 | 12.14101 | 5894 ft | 273 kts | 259° |
| 2026-04-30 04:35 | 57.55907 | 12.10590 | 6673 ft | 278 kts | 259° |
| 2026-04-30 04:36 | 57.55561 | 12.07023 | 7443 ft | 282 kts | 259° |
| 2026-04-30 04:36 | 57.55266 | 12.03398 | 8182 ft | 286 kts | 270° |
| 2026-04-30 04:36 | 57.55807 | 11.99851 | 8875 ft | 291 kts | 303° |
| 2026-04-30 04:36 | 57.57283 | 11.97278 | 9600 ft | 295 kts | 329° |
| 2026-04-30 04:37 | 57.59179 | 11.95776 | 10268 ft | 300 kts | 341° |
| 2026-04-30 04:37 | 57.61250 | 11.94627 | 10487 ft | 322 kts | 344° |
| 2026-04-30 04:37 | 57.63477 | 11.93498 | 10652 ft | 342 kts | 345° |
| 2026-04-30 04:37 | 57.65836 | 11.92314 | 10797 ft | 360 kts | 344° |
| 2026-04-30 04:38 | 57.68316 | 11.91051 | 10926 ft | 377 kts | 344° |
| 2026-04-30 04:38 | 57.70890 | 11.89716 | 11174 ft | 388 kts | 344° |
| 2026-04-30 04:38 | 57.73471 | 11.88357 | 11600 ft | 392 kts | 343° |
| 2026-04-30 04:38 | 57.76104 | 11.86955 | 12097 ft | 394 kts | 343° |
| 2026-04-30 04:39 | 57.78789 | 11.85515 | 12563 ft | 397 kts | 343° |
| 2026-04-30 04:39 | 57.81417 | 11.84099 | 12976 ft | 400 kts | 343° |
| 2026-04-30 04:39 | 57.84101 | 11.82649 | 13378 ft | 403 kts | 343° |
| 2026-04-30 04:39 | 57.86807 | 11.81184 | 13769 ft | 406 kts | 343° |
| 2026-04-30 04:40 | 57.89531 | 11.79707 | 14142 ft | 408 kts | 343° |
| 2026-04-30 04:40 | 57.92267 | 11.78221 | 14499 ft | 411 kts | 343° |
| 2026-04-30 04:40 | 57.95019 | 11.76725 | 14831 ft | 414 kts | 343° |
| 2026-04-30 04:40 | 57.97798 | 11.75212 | 15132 ft | 416 kts | 343° |
| 2026-04-30 04:41 | 58.00589 | 11.73689 | 15480 ft | 418 kts | 343° |
| 2026-04-30 04:41 | 58.03386 | 11.72161 | 15793 ft | 420 kts | 343° |
| 2026-04-30 04:41 | 58.06206 | 11.70618 | 16075 ft | 422 kts | 343° |
| 2026-04-30 04:41 | 58.09032 | 11.69068 | 16343 ft | 424 kts | 343° |
| 2026-04-30 04:42 | 58.11873 | 11.67509 | 16604 ft | 426 kts | 343° |
| 2026-04-30 04:42 | 58.14726 | 11.65940 | 16847 ft | 428 kts | 343° |
| 2026-04-30 04:42 | 58.17602 | 11.64371 | 17072 ft | 430 kts | 345° |
| 2026-04-30 04:42 | 58.20535 | 11.63164 | 17332 ft | 432 kts | 349° |
| 2026-04-30 04:43 | 58.23508 | 11.62243 | 17491 ft | 435 kts | 351° |
| 2026-04-30 04:43 | 58.26475 | 11.61408 | 17702 ft | 436 kts | 351° |
| 2026-04-30 04:43 | 58.29518 | 11.60556 | 17954 ft | 437 kts | 351° |
| 2026-04-30 04:43 | 58.32524 | 11.59690 | 18164 ft | 438 kts | 351° |
| 2026-04-30 04:44 | 58.35504 | 11.58802 | 18325 ft | 440 kts | 351° |
| 2026-04-30 04:44 | 58.38542 | 11.57875 | 18335 ft | 446 kts | 351° |
| 2026-04-30 04:44 | 58.41604 | 11.56927 | 18602 ft | 444 kts | 350° |
| 2026-04-30 04:44 | 58.44650 | 11.55978 | 18862 ft | 443 kts | 350° |
| 2026-04-30 04:45 | 58.47691 | 11.55027 | 19022 ft | 444 kts | 350° |
| 2026-04-30 04:45 | 58.50743 | 11.54072 | 19164 ft | 446 kts | 350° |
| 2026-04-30 04:45 | 58.53812 | 11.53110 | 19288 ft | 447 kts | 350° |
| 2026-04-30 04:45 | 58.56888 | 11.52146 | 19421 ft | 448 kts | 350° |
| 2026-04-30 04:46 | 58.59969 | 11.51178 | 19557 ft | 449 kts | 350° |
| 2026-04-30 04:46 | 58.63056 | 11.50207 | 19687 ft | 450 kts | 350° |
| 2026-04-30 04:46 | 58.66153 | 11.49232 | 19809 ft | 451 kts | 350° |
| 2026-04-30 04:46 | 58.69253 | 11.48253 | 19926 ft | 452 kts | 350° |
| 2026-04-30 04:47 | 58.72365 | 11.47268 | 20034 ft | 453 kts | 350° |
| 2026-04-30 04:47 | 58.75482 | 11.46278 | 20142 ft | 454 kts | 350° |
| 2026-04-30 04:47 | 58.78604 | 11.45285 | 20195 ft | 456 kts | 350° |
| 2026-04-30 04:47 | 58.81734 | 11.44286 | 20330 ft | 456 kts | 350° |
| 2026-04-30 04:48 | 58.84863 | 11.43287 | 20469 ft | 456 kts | 350° |
| 2026-04-30 04:48 | 58.87996 | 11.42285 | 20504 ft | 458 kts | 350° |
| 2026-04-30 04:48 | 58.91144 | 11.41276 | 20522 ft | 460 kts | 350° |
| 2026-04-30 04:48 | 58.94315 | 11.40258 | 20571 ft | 461 kts | 350° |
| 2026-04-30 04:49 | 58.97428 | 11.39256 | 20760 ft | 459 kts | 350° |
| 2026-04-30 04:49 | 59.00582 | 11.38240 | 20878 ft | 459 kts | 350° |
| 2026-04-30 04:49 | 59.03732 | 11.37223 | 20935 ft | 460 kts | 350° |
| 2026-04-30 04:49 | 59.06896 | 11.36199 | 20990 ft | 461 kts | 350° |
| 2026-04-30 04:50 | 59.10062 | 11.35181 | 21022 ft | 462 kts | 351° |
| 2026-04-30 04:50 | 59.13264 | 11.34566 | 21068 ft | 463 kts | 358° |
| 2026-04-30 04:50 | 59.16484 | 11.34453 | 21168 ft | 463 kts | 359° |
| 2026-04-30 04:50 | 59.19713 | 11.34471 | 21250 ft | 463 kts | 0° |
| 2026-04-30 04:51 | 59.22944 | 11.34524 | 21316 ft | 463 kts | 0° |
| 2026-04-30 04:51 | 59.25079 | 11.34555 | 21346 ft | 464 kts | 0° |
| 2026-04-30 04:51 | 59.28309 | 11.34579 | 21388 ft | 465 kts | 360° |
| 2026-04-30 04:51 | 59.32634 | 11.34570 | 21466 ft | 465 kts | 359° |
| 2026-04-30 04:52 | 59.34780 | 11.34551 | 21454 ft | 466 kts | 359° |
| 2026-04-30 04:52 | 59.38024 | 11.34512 | 21531 ft | 466 kts | 359° |
| 2026-04-30 04:52 | 59.41269 | 11.34465 | 21602 ft | 466 kts | 359° |
| 2026-04-30 04:52 | 59.44513 | 11.34414 | 21635 ft | 467 kts | 359° |
| 2026-04-30 04:53 | 59.47761 | 11.34362 | 21726 ft | 466 kts | 359° |
| 2026-04-30 04:53 | 59.50998 | 11.34311 | 21789 ft | 466 kts | 359° |
| 2026-04-30 04:53 | 59.54247 | 11.34261 | 21816 ft | 467 kts | 359° |
| 2026-04-30 04:53 | 59.57502 | 11.34211 | 21843 ft | 467 kts | 359° |
| 2026-04-30 04:54 | 59.60755 | 11.34162 | 21896 ft | 467 kts | 359° |
| 2026-04-30 04:54 | 59.64007 | 11.34113 | 21954 ft | 467 kts | 359° |
| 2026-04-30 04:54 | 59.67261 | 11.34064 | 21986 ft | 468 kts | 359° |
| 2026-04-30 04:54 | 59.70481 | 11.34015 | 22009 ft | 468 kts | 359° |
| 2026-04-30 04:55 | 59.73742 | 11.33966 | 22039 ft | 469 kts | 359° |
| 2026-04-30 04:55 | 59.76989 | 11.33917 | 22228 ft | 464 kts | 359° |
| 2026-04-30 04:55 | 59.80210 | 11.33869 | 22446 ft | 460 kts | 359° |
| 2026-04-30 04:55 | 59.83393 | 11.33820 | 22663 ft | 457 kts | 359° |
| 2026-04-30 04:56 | 59.86567 | 11.33772 | 22762 ft | 457 kts | 359° |
| 2026-04-30 04:56 | 59.89756 | 11.33723 | 22775 ft | 459 kts | 359° |
| 2026-04-30 04:56 | 59.92954 | 11.33674 | 22791 ft | 461 kts | 359° |
| 2026-04-30 04:56 | 59.96166 | 11.33625 | 22885 ft | 460 kts | 359° |
| 2026-04-30 04:57 | 59.99341 | 11.33576 | 23197 ft | 454 kts | 359° |
| 2026-04-30 04:57 | 60.02485 | 11.33528 | 23485 ft | 449 kts | 359° |
| 2026-04-30 04:57 | 60.05592 | 11.33480 | 23776 ft | 445 kts | 359° |
| 2026-04-30 04:57 | 60.08675 | 11.33433 | 24068 ft | 441 kts | 359° |
| 2026-04-30 04:58 | 60.11729 | 11.33385 | 24300 ft | 439 kts | 359° |
| 2026-04-30 04:58 | 60.14801 | 11.33337 | 24307 ft | 443 kts | 359° |
| 2026-04-30 04:58 | 60.17892 | 11.33289 | 24333 ft | 446 kts | 359° |
| 2026-04-30 04:58 | 60.21004 | 11.33240 | 24353 ft | 449 kts | 359° |
| 2026-04-30 04:59 | 60.24138 | 11.33192 | 24372 ft | 451 kts | 359° |
| 2026-04-30 04:59 | 60.27286 | 11.33142 | 24390 ft | 454 kts | 359° |
| 2026-04-30 04:59 | 60.30439 | 11.33093 | 24608 ft | 450 kts | 359° |
| 2026-04-30 04:59 | 60.33549 | 11.33044 | 24900 ft | 445 kts | 359° |
| 2026-04-30 05:00 | 60.36628 | 11.32996 | 25191 ft | 441 kts | 359° |
| 2026-04-30 05:00 | 60.39682 | 11.32949 | 25482 ft | 437 kts | 359° |
| 2026-04-30 05:00 | 60.42731 | 11.32900 | 25534 ft | 440 kts | 359° |
| 2026-04-30 05:00 | 60.45798 | 11.32852 | 25561 ft | 443 kts | 359° |
| 2026-04-30 05:01 | 60.48890 | 11.32803 | 25610 ft | 445 kts | 359° |
| 2026-04-30 05:01 | 60.51944 | 11.32754 | 25711 ft | 445 kts | 359° |
| 2026-04-30 05:01 | 60.55041 | 11.32705 | 25827 ft | 445 kts | 359° |
| 2026-04-30 05:01 | 60.58145 | 11.32655 | 25943 ft | 445 kts | 359° |
| 2026-04-30 05:02 | 60.61238 | 11.32606 | 25992 ft | 444 kts | 359° |
| 2026-04-30 05:02 | 60.64332 | 11.32557 | 25995 ft | 444 kts | 359° |
| 2026-04-30 05:02 | 60.67418 | 11.32507 | 25999 ft | 444 kts | 359° |
| 2026-04-30 05:02 | 60.70505 | 11.32458 | 26003 ft | 443 kts | 359° |
| 2026-04-30 05:03 | 60.73588 | 11.32408 | 26003 ft | 443 kts | 359° |
| 2026-04-30 05:03 | 60.76676 | 11.32358 | 26001 ft | 443 kts | 359° |
| 2026-04-30 05:03 | 60.79763 | 11.32309 | 26001 ft | 443 kts | 359° |
| 2026-04-30 05:03 | 60.82845 | 11.32259 | 26002 ft | 443 kts | 359° |
| 2026-04-30 05:04 | 60.85891 | 11.32210 | 26002 ft | 443 kts | 359° |
| 2026-04-30 05:04 | 60.88973 | 11.32159 | 26001 ft | 443 kts | 359° |
| 2026-04-30 05:04 | 60.92059 | 11.32109 | 26001 ft | 443 kts | 359° |
| 2026-04-30 05:04 | 60.95145 | 11.32059 | 26002 ft | 443 kts | 359° |
| 2026-04-30 05:05 | 60.98231 | 11.32009 | 26000 ft | 443 kts | 359° |
| 2026-04-30 05:05 | 61.01312 | 11.31958 | 26002 ft | 443 kts | 359° |
| 2026-04-30 05:05 | 61.04401 | 11.31908 | 26001 ft | 443 kts | 359° |
| 2026-04-30 05:06 | 61.10565 | 11.31806 | 26002 ft | 443 kts | 359° |
| 2026-04-30 05:06 | 61.13645 | 11.31756 | 26002 ft | 443 kts | 359° |
| 2026-04-30 05:06 | 61.16730 | 11.31705 | 26001 ft | 443 kts | 359° |
| 2026-04-30 05:06 | 61.19773 | 11.31654 | 26000 ft | 443 kts | 359° |
| 2026-04-30 05:07 | 61.22854 | 11.31603 | 26002 ft | 443 kts | 359° |
| 2026-04-30 05:07 | 61.25939 | 11.31552 | 26002 ft | 443 kts | 359° |
| 2026-04-30 05:07 | 61.29019 | 11.31501 | 26003 ft | 443 kts | 359° |
| 2026-04-30 05:07 | 61.32098 | 11.31449 | 26003 ft | 443 kts | 359° |
| 2026-04-30 05:08 | 61.35183 | 11.31398 | 25999 ft | 443 kts | 359° |
| 2026-04-30 05:08 | 61.38263 | 11.31346 | 26001 ft | 443 kts | 359° |
| 2026-04-30 05:08 | 61.41348 | 11.31294 | 26001 ft | 443 kts | 359° |
| 2026-04-30 05:08 | 61.44433 | 11.31243 | 26001 ft | 443 kts | 359° |
| 2026-04-30 05:09 | 61.47512 | 11.31191 | 26002 ft | 443 kts | 359° |
| 2026-04-30 05:09 | 61.50592 | 11.31139 | 26003 ft | 443 kts | 359° |
| 2026-04-30 05:09 | 61.53672 | 11.31087 | 25999 ft | 443 kts | 359° |
| 2026-04-30 05:09 | 61.56758 | 11.31034 | 26001 ft | 443 kts | 359° |
| 2026-04-30 05:10 | 61.59838 | 11.30982 | 26002 ft | 443 kts | 359° |
| 2026-04-30 05:10 | 61.62918 | 11.30930 | 26001 ft | 443 kts | 359° |
| 2026-04-30 05:10 | 61.66003 | 11.30877 | 26002 ft | 443 kts | 359° |
| 2026-04-30 05:10 | 61.69089 | 11.30824 | 26001 ft | 443 kts | 359° |
| 2026-04-30 05:11 | 61.72134 | 11.30772 | 26000 ft | 443 kts | 359° |
| 2026-04-30 05:11 | 61.75217 | 11.30719 | 26001 ft | 443 kts | 359° |
| 2026-04-30 05:11 | 61.78298 | 11.30666 | 26001 ft | 443 kts | 359° |
| 2026-04-30 05:11 | 61.81379 | 11.30613 | 26003 ft | 443 kts | 359° |
| 2026-04-30 05:12 | 61.84460 | 11.30560 | 26000 ft | 443 kts | 359° |
| 2026-04-30 05:12 | 61.87546 | 11.30507 | 26002 ft | 443 kts | 359° |
| 2026-04-30 05:12 | 61.90632 | 11.30453 | 26001 ft | 443 kts | 359° |
| 2026-04-30 05:12 | 61.93723 | 11.30400 | 26001 ft | 443 kts | 359° |
| 2026-04-30 05:13 | 61.96804 | 11.30346 | 26001 ft | 443 kts | 359° |
| 2026-04-30 05:13 | 61.99885 | 11.30292 | 26001 ft | 443 kts | 359° |
| 2026-04-30 05:13 | 62.02966 | 11.30239 | 26002 ft | 443 kts | 359° |
| 2026-04-30 05:13 | 62.06051 | 11.30185 | 26001 ft | 443 kts | 359° |
| 2026-04-30 05:14 | 62.09132 | 11.30131 | 26000 ft | 443 kts | 359° |
| 2026-04-30 05:14 | 62.12212 | 11.30077 | 26003 ft | 443 kts | 359° |
| 2026-04-30 05:14 | 62.15293 | 11.30022 | 26000 ft | 443 kts | 359° |
| 2026-04-30 05:14 | 62.18379 | 11.29968 | 26003 ft | 443 kts | 359° |
| 2026-04-30 05:15 | 62.21465 | 11.29913 | 26001 ft | 443 kts | 359° |
| 2026-04-30 05:15 | 62.24546 | 11.29859 | 26002 ft | 443 kts | 359° |
| 2026-04-30 05:15 | 62.27628 | 11.29804 | 26000 ft | 443 kts | 359° |
| 2026-04-30 05:15 | 62.30709 | 11.29749 | 26001 ft | 443 kts | 359° |
| 2026-04-30 05:16 | 62.33798 | 11.29694 | 26003 ft | 443 kts | 359° |
| 2026-04-30 05:16 | 62.36898 | 11.29639 | 25691 ft | 450 kts | 359° |
| 2026-04-30 05:16 | 62.40030 | 11.29582 | 25199 ft | 461 kts | 359° |
| 2026-04-30 05:16 | 62.43233 | 11.29525 | 24612 ft | 458 kts | 359° |
| 2026-04-30 05:17 | 62.46402 | 11.29468 | 24028 ft | 453 kts | 359° |
| 2026-04-30 05:17 | 62.49545 | 11.29412 | 23424 ft | 448 kts | 359° |
| 2026-04-30 05:17 | 62.52642 | 11.29356 | 22831 ft | 444 kts | 359° |
| 2026-04-30 05:17 | 62.55714 | 11.29301 | 22230 ft | 440 kts | 359° |
| 2026-04-30 05:18 | 62.58762 | 11.29246 | 21633 ft | 436 kts | 359° |
| 2026-04-30 05:18 | 62.61777 | 11.29191 | 21053 ft | 431 kts | 359° |
| 2026-04-30 05:18 | 62.64764 | 11.29137 | 20464 ft | 428 kts | 359° |
| 2026-04-30 05:18 | 62.67729 | 11.29083 | 19877 ft | 424 kts | 359° |
| 2026-04-30 05:19 | 62.70662 | 11.29029 | 19307 ft | 420 kts | 359° |
| 2026-04-30 05:19 | 62.73575 | 11.28975 | 18729 ft | 416 kts | 359° |
| 2026-04-30 05:19 | 62.76458 | 11.28923 | 18154 ft | 413 kts | 359° |
| 2026-04-30 05:19 | 62.79315 | 11.28870 | 17589 ft | 409 kts | 359° |
| 2026-04-30 05:20 | 62.82149 | 11.28818 | 17030 ft | 406 kts | 359° |
| 2026-04-30 05:20 | 62.84962 | 11.28723 | 16456 ft | 402 kts | 358° |
| 2026-04-30 05:20 | 62.87748 | 11.28521 | 15899 ft | 399 kts | 358° |
| 2026-04-30 05:20 | 62.90515 | 11.28286 | 15357 ft | 396 kts | 357° |
| 2026-04-30 05:21 | 62.93257 | 11.28060 | 14819 ft | 392 kts | 358° |
| 2026-04-30 05:21 | 62.95971 | 11.27851 | 14299 ft | 388 kts | 358° |
| 2026-04-30 05:21 | 62.98632 | 11.27653 | 14104 ft | 376 kts | 358° |
| 2026-04-30 05:21 | 63.01210 | 11.27726 | 13897 ft | 366 kts | 7° |
| 2026-04-30 05:22 | 63.03684 | 11.28777 | 13653 ft | 359 kts | 12° |
| 2026-04-30 05:22 | 63.06094 | 11.30003 | 13395 ft | 351 kts | 13° |
| 2026-04-30 05:22 | 63.08434 | 11.31152 | 13125 ft | 337 kts | 12° |
| 2026-04-30 05:22 | 63.10707 | 11.32205 | 12876 ft | 330 kts | 11° |
| 2026-04-30 05:23 | 63.12922 | 11.33201 | 12607 ft | 319 kts | 11° |
| 2026-04-30 05:23 | 63.15040 | 11.34157 | 12360 ft | 312 kts | 12° |
| 2026-04-30 05:23 | 63.17099 | 11.35589 | 12109 ft | 310 kts | 21° |
| 2026-04-30 05:23 | 63.19099 | 11.37371 | 11868 ft | 310 kts | 23° |
| 2026-04-30 05:24 | 63.20881 | 11.40007 | 11590 ft | 311 kts | 48° |
| 2026-04-30 05:24 | 63.21978 | 11.44083 | 11357 ft | 309 kts | 72° |
| 2026-04-30 05:24 | 63.22307 | 11.48751 | 11107 ft | 307 kts | 94° |
| 2026-04-30 05:24 | 63.22043 | 11.53432 | 10886 ft | 306 kts | 99° |
| 2026-04-30 05:25 | 63.21925 | 11.58128 | 10600 ft | 307 kts | 80° |
| 2026-04-30 05:25 | 63.22482 | 11.62676 | 10384 ft | 305 kts | 73° |
| 2026-04-30 05:25 | 63.23099 | 11.67174 | 10132 ft | 305 kts | 73° |
| 2026-04-30 05:25 | 63.23768 | 11.71627 | 9868 ft | 305 kts | 64° |
| 2026-04-30 05:26 | 63.25025 | 11.75389 | 9625 ft | 303 kts | 48° |
| 2026-04-30 05:26 | 63.26439 | 11.78893 | 9204 ft | 305 kts | 48° |
| 2026-04-30 05:26 | 63.27842 | 11.82405 | 8885 ft | 303 kts | 47° |
| 2026-04-30 05:26 | 63.29517 | 11.85188 | 8478 ft | 303 kts | 23° |
| 2026-04-30 05:27 | 63.31560 | 11.86077 | 8118 ft | 301 kts | 356° |
| 2026-04-30 05:27 | 63.33561 | 11.84945 | 7808 ft | 297 kts | 332° |
| 2026-04-30 05:27 | 63.35146 | 11.82180 | 7492 ft | 293 kts | 309° |
| 2026-04-30 05:27 | 63.36144 | 11.78289 | 7177 ft | 290 kts | 287° |
| 2026-04-30 05:28 | 63.36595 | 11.73934 | 6892 ft | 285 kts | 281° |
| 2026-04-30 05:28 | 63.36965 | 11.69657 | 6573 ft | 278 kts | 280° |
| 2026-04-30 05:28 | 63.37331 | 11.65450 | 6289 ft | 276 kts | 281° |
| 2026-04-30 05:28 | 63.37701 | 11.61259 | 6004 ft | 274 kts | 281° |
| 2026-04-30 05:29 | 63.38158 | 11.57161 | 5700 ft | 273 kts | 294° |
| 2026-04-30 05:29 | 63.39325 | 11.53882 | 5427 ft | 271 kts | 323° |
| 2026-04-30 05:29 | 63.40991 | 11.51977 | 5161 ft | 270 kts | 340° |
| 2026-04-30 05:29 | 63.42761 | 11.50618 | 4875 ft | 268 kts | 341° |
| 2026-04-30 05:30 | 63.44418 | 11.48790 | 4563 ft | 265 kts | 316° |
| 2026-04-30 05:30 | 63.45352 | 11.45477 | 4325 ft | 251 kts | 283° |
| 2026-04-30 05:30 | 63.45613 | 11.41702 | 4083 ft | 240 kts | 276° |
| 2026-04-30 05:30 | 63.45741 | 11.38077 | 3836 ft | 229 kts | 271° |
| 2026-04-30 05:31 | 63.45764 | 11.34592 | 3628 ft | 219 kts | 269° |
| 2026-04-30 05:31 | 63.45758 | 11.31311 | 3562 ft | 203 kts | 269° |
| 2026-04-30 05:31 | 63.45752 | 11.28192 | 3403 ft | 201 kts | 269° |
| 2026-04-30 05:31 | 63.45749 | 11.25053 | 3118 ft | 202 kts | 269° |
| 2026-04-30 05:32 | 63.45745 | 11.21919 | 2826 ft | 201 kts | 269° |
| 2026-04-30 05:32 | 63.45743 | 11.18809 | 2517 ft | 200 kts | 269° |
| 2026-04-30 05:32 | 63.45742 | 11.15711 | 2211 ft | 198 kts | 269° |
| 2026-04-30 05:32 | 63.45742 | 11.12654 | 1916 ft | 195 kts | 269° |
| 2026-04-30 05:33 | 63.45742 | 11.09704 | 1645 ft | 185 kts | 269° |
| 2026-04-30 05:33 | 63.45743 | 11.06899 | 1358 ft | 176 kts | 269° |
| 2026-04-30 05:33 | 63.45745 | 11.04280 | 1106 ft | 162 kts | 269° |
| 2026-04-30 05:33 | 63.45749 | 11.01838 | 863 ft | 154 kts | 270° |
| 2026-04-30 05:34 | 63.45750 | 10.99506 | 644 ft | 152 kts | 270° |
| 2026-04-30 05:34 | 63.45753 | 10.97145 | 419 ft | 151 kts | 270° |
| 2026-04-30 05:34 | 63.45756 | 10.94800 | 158 ft | 152 kts | 269° |
| 2026-04-30 05:34 | 63.45762 | 10.92600 | 43 ft | 106 kts | 270° |